Time;durP1;ratioP1;P1;durP2;ratioP2;P2;SDS_P1;SDS_P2;PMS_P1;PMS_P2;Temp;Humidity;BMP_temperature;BMP_pressure;BME280_temperature;BME280_humidity;BME280_pressure;Samples;Min_cycle;Max_cycle;Signal;HPM_P1;HPM_P2
2022/05/04 00:00:14;;;;;;;20.52;10.13;;;;;;;7.73;71.94;101862.78;5052808;28;20025;-59
2022/05/04 00:02:40;;;;;;;20.48;9.68;;;;;;;7.81;71.72;101867.81;5052379;28;20043;-58
2022/05/04 00:05:07;;;;;;;21.58;10.30;;;;;;;7.78;71.52;101862.81;5053149;28;20546;-58
2022/05/04 00:07:32;;;;;;;21.98;10.35;;;;;;;7.78;71.97;101869.19;5052675;28;20036;-59
2022/05/04 00:09:58;;;;;;;22.30;10.30;;;;;;;7.80;71.78;101864.22;5053021;28;20021;-59
2022/05/04 00:12:24;;;;;;;19.40;9.60;;;;;;;7.77;72.15;101864.75;5052594;28;20342;-59
2022/05/04 00:14:50;;;;;;;20.88;10.60;;;;;;;7.78;71.79;101862.81;5052591;28;20373;-59
2022/05/04 00:17:15;;;;;;;19.92;10.20;;;;;;;7.78;71.74;101857.31;5052350;28;20051;-58
2022/05/04 00:19:41;;;;;;;21.85;10.35;;;;;;;7.87;71.79;101866.75;5052661;28;20090;-59
2022/05/04 00:22:06;;;;;;;20.15;10.18;;;;;;;7.88;71.63;101867.59;5052583;28;20107;-59
2022/05/04 00:24:31;;;;;;;19.58;10.20;;;;;;;7.89;71.78;101870.09;5052629;28;20032;-59
2022/05/04 00:26:57;;;;;;;20.05;10.60;;;;;;;7.92;71.59;101868.72;5052497;28;20025;-59
2022/05/04 00:29:22;;;;;;;24.95;10.88;;;;;;;7.87;72.05;101868.69;5052736;28;20021;-58
2022/05/04 00:31:47;;;;;;;23.23;9.98;;;;;;;7.85;72.08;101871.69;5052283;28;20025;-59
2022/05/04 00:34:12;;;;;;;21.77;9.50;;;;;;;7.85;71.53;101870.88;5052575;28;20024;-58
2022/05/04 00:36:38;;;;;;;20.83;10.10;;;;;;;7.85;72.10;101866.19;5052478;28;20075;-59
2022/05/04 00:39:03;;;;;;;22.33;10.02;;;;;;;7.91;71.47;101869.81;5052572;28;20021;-58
2022/05/04 00:41:28;;;;;;;20.48;10.38;;;;;;;7.92;71.18;101868.72;5052564;28;20029;-59
2022/05/04 00:43:54;;;;;;;25.17;10.27;;;;;;;7.90;71.27;101863.50;5052725;28;20446;-59
2022/05/04 00:46:21;;;;;;;20.98;10.30;;;;;;;7.86;71.36;101865.09;5052714;28;20456;-58
2022/05/04 00:48:47;;;;;;;20.85;9.30;;;;;;;7.88;71.26;101864.84;5052347;28;20093;-58
2022/05/04 00:51:12;;;;;;;21.33;10.55;;;;;;;7.82;71.13;101861.22;5052733;28;20108;-59
2022/05/04 00:53:40;;;;;;;21.38;10.10;;;;;;;7.75;71.34;101853.16;5055747;28;20029;-59
2022/05/04 00:56:08;;;;;;;18.95;10.15;;;;;;;7.83;71.12;101862.03;5056375;28;20045;-59
2022/05/04 01:01:23;;;;;;;20.17;9.65;;;;;;;7.88;71.02;101860.16;5056957;28;20175;-58
2022/05/04 01:03:48;;;;;;;19.00;9.23;;;;;;;7.92;70.82;101854.94;5056250;28;20456;-59
2022/05/04 01:06:14;;;;;;;20.30;9.40;;;;;;;7.88;70.79;101851.88;5056295;28;20032;-59
2022/05/04 01:08:40;;;;;;;22.02;10.35;;;;;;;7.85;70.89;101857.91;5056285;28;20044;-58
2022/05/04 01:11:05;;;;;;;22.65;9.98;;;;;;;7.83;70.59;101853.78;5055879;28;20036;-57
2022/05/04 01:13:31;;;;;;;21.10;9.70;;;;;;;7.86;70.88;101856.00;5055892;28;20114;-58
2022/05/04 01:15:56;;;;;;;20.00;9.02;;;;;;;7.87;70.83;101855.75;5056051;28;20412;-58
2022/05/04 01:18:21;;;;;;;19.00;9.65;;;;;;;7.86;70.80;101853.25;5055995;28;20078;-59
2022/05/04 01:20:46;;;;;;;20.08;10.10;;;;;;;7.85;70.59;101852.41;5056018;28;20025;-58
2022/05/04 01:23:13;;;;;;;19.42;9.82;;;;;;;7.89;70.45;101856.31;5055812;28;20052;-59
2022/05/04 01:25:38;;;;;;;22.30;9.63;;;;;;;7.90;70.12;101852.47;5055857;28;20071;-58
2022/05/04 01:28:04;;;;;;;21.60;9.50;;;;;;;7.94;70.12;101852.75;5055917;28;20033;-58
2022/05/04 01:30:32;;;;;;;19.27;10.00;;;;;;;7.95;70.12;101863.50;5055693;28;20029;-59
2022/05/04 01:32:59;;;;;;;20.30;9.50;;;;;;;7.95;69.74;101855.25;5055673;28;20025;-56
2022/05/04 01:35:24;;;;;;;20.55;9.80;;;;;;;7.93;69.59;101853.84;5055602;28;20392;-57
2022/05/04 01:37:49;;;;;;;21.42;9.73;;;;;;;7.87;70.07;101852.16;5055384;28;20036;-57
2022/05/04 01:40:15;;;;;;;20.02;9.45;;;;;;;7.90;70.45;101857.13;5055492;28;20413;-57
2022/05/04 01:42:40;;;;;;;20.27;10.43;;;;;;;7.88;70.04;101849.13;5055537;28;20060;-57
2022/05/04 01:45:08;;;;;;;23.85;10.00;;;;;;;7.84;70.13;101853.50;5055413;28;20021;-57
2022/05/04 01:47:34;;;;;;;23.17;10.13;;;;;;;7.82;70.45;101858.47;5055572;28;20094;-57
2022/05/04 01:49:59;;;;;;;21.35;9.23;;;;;;;7.82;70.40;101861.22;5055346;28;20025;-57
2022/05/04 01:52:25;;;;;;;21.15;9.38;;;;;;;7.84;70.33;101860.94;5055310;28;20033;-57
2022/05/04 01:54:50;;;;;;;20.38;9.95;;;;;;;7.78;70.45;101849.91;5055195;28;20103;-57
2022/05/04 01:57:16;;;;;;;19.35;8.88;;;;;;;7.78;70.33;101852.66;5055097;28;20021;-57
2022/05/04 01:59:41;;;;;;;22.25;9.48;;;;;;;7.85;69.70;101849.66;5055080;28;20533;-57
2022/05/04 02:02:07;;;;;;;19.92;9.48;;;;;;;7.80;69.90;101849.63;5054952;28;20024;-57
2022/05/04 02:04:33;;;;;;;22.00;9.77;;;;;;;7.78;70.02;101846.28;5052604;28;20029;-57
2022/05/04 02:06:58;;;;;;;19.55;9.68;;;;;;;7.81;70.27;101851.28;5055018;28;20021;-57
2022/05/04 02:09:24;;;;;;;20.15;8.90;;;;;;;7.79;70.12;101850.72;5054998;28;20028;-57
2022/05/04 02:11:49;;;;;;;20.90;10.20;;;;;;;7.80;70.15;101849.63;5054877;28;20032;-57
2022/05/04 02:14:14;;;;;;;21.60;9.50;;;;;;;7.75;70.43;101847.66;5054716;28;20174;-57
2022/05/04 02:16:40;;;;;;;24.20;10.48;;;;;;;7.69;70.62;101845.97;5054853;28;20031;-57
2022/05/04 02:19:05;;;;;;;21.17;9.45;;;;;;;7.70;70.74;101844.03;5054971;28;20021;-57
2022/05/04 02:21:30;;;;;;;23.20;10.10;;;;;;;7.77;70.25;101850.97;5054635;28;20029;-57
2022/05/04 02:23:56;;;;;;;21.27;9.00;;;;;;;7.74;70.35;101847.94;5054850;28;20025;-58
2022/05/04 02:26:21;;;;;;;20.05;8.98;;;;;;;7.74;70.28;101845.19;5068108;22;20049;-56
2022/05/04 02:28:46;;;;;;;19.35;9.38;;;;;;;7.68;70.32;101847.06;5053416;28;20371;-56
2022/05/04 02:31:11;;;;;;;23.27;11.45;;;;;;;7.68;70.65;101840.69;5052263;28;20033;-58
2022/05/04 02:33:37;;;;;;;22.38;10.63;;;;;;;7.67;71.06;101837.13;5053271;28;20477;-57
2022/05/04 02:38:47;;;;;;;21.67;9.55;;;;;;;7.62;70.82;101845.31;5053406;28;20063;-55
2022/05/04 02:41:12;;;;;;;20.02;9.35;;;;;;;7.56;71.36;101836.19;5052953;28;20029;-57
2022/05/04 02:43:38;;;;;;;20.63;9.43;;;;;;;7.61;70.83;101833.50;5053006;28;20124;-58
2022/05/04 02:46:15;;;;;;;20.33;9.10;;;;;;;7.63;71.03;101841.47;5053150;28;20029;-54
2022/05/04 02:48:40;;;;;;;21.30;9.60;;;;;;;7.62;70.90;101832.41;5053265;28;20090;-56
2022/05/04 02:51:06;;;;;;;19.65;10.25;;;;;;;7.64;70.77;101826.63;5053307;28;20402;-57
2022/05/04 02:53:31;;;;;;;22.05;10.23;;;;;;;7.60;71.13;101831.00;5052955;28;20489;-56
2022/05/04 02:55:56;;;;;;;20.77;9.73;;;;;;;7.55;71.08;101829.03;5052891;28;20025;-57
2022/05/04 02:58:21;;;;;;;20.77;10.20;;;;;;;7.54;71.41;101832.88;5068267;28;20092;-57
2022/05/04 03:00:47;;;;;;;22.10;9.65;;;;;;;7.55;71.14;101828.19;5053204;28;20380;-57
2022/05/04 03:03:12;;;;;;;21.55;9.27;;;;;;;7.57;70.88;101820.50;5053483;28;20040;-57
2022/05/04 03:05:37;;;;;;;20.13;10.63;;;;;;;7.60;71.07;101833.75;5053812;28;20025;-56
2022/05/04 03:08:03;;;;;;;19.42;10.13;;;;;;;7.57;71.20;101826.84;5053236;28;20517;-56
2022/05/04 03:10:28;;;;;;;22.52;10.38;;;;;;;7.59;71.28;101829.34;5053405;28;20491;-57
2022/05/04 03:12:53;;;;;;;22.38;10.07;;;;;;;7.56;71.22;101816.91;5053527;28;20337;-56
2022/05/04 03:15:18;;;;;;;20.23;9.75;;;;;;;7.54;71.04;101824.63;5053142;28;20025;-57
2022/05/04 03:17:44;;;;;;;20.08;9.45;;;;;;;7.53;71.53;101820.19;5053141;28;20041;-57
2022/05/04 03:20:12;;;;;;;20.45;9.77;;;;;;;7.51;71.23;101819.63;5052804;28;20028;-57
2022/05/04 03:22:37;;;;;;;18.80;9.52;;;;;;;7.44;71.77;101813.50;5052481;28;20021;-56
2022/05/04 03:25:07;;;;;;;23.13;10.02;;;;;;;7.36;71.99;101811.25;5054540;28;20036;-56
2022/05/04 03:27:32;;;;;;;21.25;10.25;;;;;;;7.33;71.87;101820.81;5072589;28;20029;-57
2022/05/04 03:29:57;;;;;;;22.75;11.13;;;;;;;7.31;71.83;101810.09;5072344;28;20039;-56
2022/05/04 03:32:22;;;;;;;23.20;9.90;;;;;;;7.29;71.86;101812.25;5072210;28;20063;-57
2022/05/04 03:34:48;;;;;;;21.13;9.98;;;;;;;7.26;72.41;101810.03;5072102;28;20020;-56
2022/05/04 03:37:14;;;;;;;21.50;9.93;;;;;;;7.25;72.51;101816.63;5072068;28;20033;-56
2022/05/04 03:39:39;;;;;;;20.45;10.27;;;;;;;7.24;72.39;101814.13;5072179;28;20036;-56
2022/05/04 03:42:04;;;;;;;22.55;9.95;;;;;;;7.23;72.42;101820.72;5072461;28;20439;-56
2022/05/04 03:44:30;;;;;;;19.88;10.63;;;;;;;7.24;72.25;101819.63;5072242;28;20028;-58
2022/05/04 03:46:55;;;;;;;19.95;9.50;;;;;;;7.26;72.33;101823.81;5072320;28;20028;-57
2022/05/04 03:49:22;;;;;;;20.77;9.90;;;;;;;7.24;72.50;101819.63;5072396;28;20416;-56
2022/05/04 03:51:48;;;;;;;22.40;10.52;;;;;;;7.21;72.77;101814.66;5072038;28;20036;-56
2022/05/04 03:54:13;;;;;;;21.17;10.25;;;;;;;7.17;72.71;101817.94;5072342;28;20024;-56
2022/05/04 03:56:39;;;;;;;22.05;10.00;;;;;;;7.21;72.81;101814.66;5071024;28;20486;-56
2022/05/04 03:59:06;;;;;;;20.95;10.40;;;;;;;7.21;72.59;101817.41;5072378;28;20040;-57
2022/05/04 04:01:32;;;;;;;22.55;10.02;;;;;;;7.24;72.55;101822.38;5072074;28;20032;-56
2022/05/04 04:03:57;;;;;;;21.45;11.13;;;;;;;7.18;72.98;101825.09;5072066;28;20494;-56
2022/05/04 04:06:23;;;;;;;22.80;10.75;;;;;;;7.05;73.55;101820.00;5071932;28;20024;-56
2022/05/04 04:08:49;;;;;;;20.80;10.02;;;;;;;7.03;73.72;101822.19;5072014;28;20115;-56
2022/05/04 04:11:14;;;;;;;20.60;10.57;;;;;;;7.02;73.42;101821.34;5072224;28;20174;-57
2022/05/04 04:13:40;;;;;;;21.15;10.48;;;;;;;7.00;73.58;101818.00;5072257;28;20104;-59
2022/05/04 04:16:05;;;;;;;21.67;10.10;;;;;;;7.01;73.35;101822.44;5071958;28;20036;-56
2022/05/04 04:18:30;;;;;;;20.85;11.25;;;;;;;6.99;73.62;101819.09;5071923;28;20016;-55
2022/05/04 04:23:40;;;;;;;22.27;11.02;;;;;;;6.89;73.97;101821.75;5071922;28;20131;-56
2022/05/04 04:26:07;;;;;;;20.08;10.43;;;;;;;6.82;74.57;101818.34;5071428;28;20064;-56
2022/05/04 04:28:36;;;;;;;21.15;10.43;;;;;;;6.74;74.96;101816.06;5071331;28;20472;-56
2022/05/04 04:31:02;;;;;;;20.70;10.32;;;;;;;6.73;74.60;101815.25;5071721;28;20143;-57
2022/05/04 04:33:28;;;;;;;22.13;10.32;;;;;;;6.76;74.37;101816.63;5071643;28;20483;-55
2022/05/04 04:35:54;;;;;;;22.92;10.23;;;;;;;6.73;74.52;101826.22;5071940;28;20028;-56
2022/05/04 04:38:19;;;;;;;20.70;10.18;;;;;;;6.76;74.16;101822.13;5072081;28;20493;-55
2022/05/04 04:40:46;;;;;;;19.65;10.25;;;;;;;6.77;74.55;101823.81;5071728;28;20029;-57
2022/05/04 04:43:11;;;;;;;21.13;10.30;;;;;;;6.75;74.69;101832.31;5071857;28;20028;-58
2022/05/04 04:45:36;;;;;;;20.48;9.80;;;;;;;6.74;74.68;101838.06;5071793;28;20077;-57
2022/05/04 04:48:02;;;;;;;22.42;10.55;;;;;;;6.78;74.65;101837.28;5071770;28;20049;-56
2022/05/04 04:50:27;;;;;;;23.38;10.95;;;;;;;6.81;74.70;101841.44;5071871;28;20427;-55
2022/05/04 04:52:53;;;;;;;22.08;10.57;;;;;;;6.85;74.34;101842.59;5071801;28;20185;-57
2022/05/04 04:55:18;;;;;;;21.70;10.27;;;;;;;6.88;74.25;101833.84;5071677;28;20150;-58
2022/05/04 04:57:43;;;;;;;22.40;10.73;;;;;;;6.78;75.16;101822.72;5071669;28;20024;-57
2022/05/04 05:00:09;;;;;;;21.48;10.65;;;;;;;6.79;75.16;101827.13;5071410;28;20036;-56
2022/05/04 05:02:35;;;;;;;21.88;10.55;;;;;;;6.76;74.74;101828.44;5071316;28;20025;-57
2022/05/04 05:05:02;;;;;;;23.83;10.88;;;;;;;6.75;74.85;101834.22;5071115;28;20033;-56
2022/05/04 05:07:27;;;;;;;22.65;10.73;;;;;;;6.77;74.85;101826.56;5071386;28;20031;-55
2022/05/04 05:09:52;;;;;;;21.95;10.70;;;;;;;6.80;74.36;101826.88;5071378;28;20474;-56
2022/05/04 05:12:18;;;;;;;23.70;10.32;;;;;;;6.75;74.73;101837.81;5069921;28;20032;-55
2022/05/04 05:17:28;;;;;;;21.33;10.68;;;;;;;6.65;75.30;101827.50;5071424;28;20058;-55
2022/05/04 05:19:53;;;;;;;22.10;10.75;;;;;;;6.67;75.04;101827.25;5071307;28;20031;-55
2022/05/04 05:22:18;;;;;;;24.42;10.63;;;;;;;6.67;75.48;101827.25;5071062;28;20024;-56
2022/05/04 05:24:44;;;;;;;25.70;10.82;;;;;;;6.75;74.96;101832.31;5071265;28;20033;-56
2022/05/04 05:27:09;;;;;;;24.33;10.43;;;;;;;6.76;75.42;101833.97;5071185;28;20048;-57
2022/05/04 05:29:35;;;;;;;23.98;11.63;;;;;;;6.83;75.20;101839.28;5071232;28;20032;-57
2022/05/04 05:32:00;;;;;;;22.10;10.05;;;;;;;6.83;74.56;101840.13;5070998;28;20029;-56
2022/05/04 05:34:26;;;;;;;22.90;10.30;;;;;;;6.85;74.82;101837.09;5070951;28;20137;-56
2022/05/04 05:36:52;;;;;;;22.65;9.88;;;;;;;6.84;74.50;101832.69;5070255;28;20498;-56
2022/05/04 05:39:17;;;;;;;22.02;10.48;;;;;;;6.84;74.72;101841.78;5073581;28;20021;-56
2022/05/04 05:41:42;;;;;;;25.15;10.60;;;;;;;6.87;74.68;101830.25;5074707;28;20028;-57
2022/05/04 05:44:09;;;;;;;22.33;10.88;;;;;;;6.92;74.54;101832.22;5073272;28;20033;-56
2022/05/04 05:46:34;;;;;;;24.45;10.70;;;;;;;6.98;74.14;101824.88;5074639;28;20039;-57
2022/05/04 05:48:59;;;;;;;20.65;10.02;;;;;;;7.03;74.11;101827.69;5074811;28;20020;-56
2022/05/04 05:51:25;;;;;;;22.27;10.57;;;;;;;7.10;73.90;101830.22;5074709;28;20165;-56
2022/05/04 05:53:50;;;;;;;22.67;10.63;;;;;;;7.13;73.82;101832.47;5074581;28;20036;-56
2022/05/04 05:56:15;;;;;;;23.00;10.65;;;;;;;7.21;73.39;101832.00;5074615;28;20024;-56
2022/05/04 05:58:40;;;;;;;21.52;10.95;;;;;;;7.25;73.18;101830.41;5074629;28;20375;-57
2022/05/04 06:01:06;;;;;;;23.58;11.27;;;;;;;7.31;73.02;101836.78;5074384;28;20032;-56
2022/05/04 06:03:31;;;;;;;25.88;11.32;;;;;;;7.41;72.56;101834.16;5074221;28;20048;-55
2022/05/04 06:05:56;;;;;;;23.90;11.05;;;;;;;7.42;72.16;101835.78;5074596;28;20036;-56
2022/05/04 06:08:22;;;;;;;26.10;11.13;;;;;;;7.53;72.11;101841.38;5074256;28;20027;-55
2022/05/04 06:10:47;;;;;;;22.38;10.50;;;;;;;7.60;71.17;101844.78;5074152;28;20093;-56
2022/05/04 06:13:12;;;;;;;21.30;10.30;;;;;;;7.68;70.99;101838.78;5074054;28;20107;-56
2022/05/04 06:15:38;;;;;;;21.00;10.05;;;;;;;7.76;70.66;101842.97;5073987;28;20029;-56
2022/05/04 06:18:04;;;;;;;21.92;10.38;;;;;;;7.80;71.03;101844.94;5074314;28;20028;-56
2022/05/04 06:20:29;;;;;;;23.05;9.70;;;;;;;7.92;69.85;101855.78;5073987;28;20134;-54
2022/05/04 06:22:55;;;;;;;22.02;10.10;;;;;;;8.05;69.53;101849.00;5073973;28;20029;-56
2022/05/04 06:25:20;;;;;;;21.50;10.45;;;;;;;8.13;68.58;101850.41;5073617;28;20102;-55
2022/05/04 06:27:46;;;;;;;22.40;10.90;;;;;;;8.19;68.13;101854.88;5074195;28;20082;-55
2022/05/04 06:35:39;;;;;;;22.58;10.35;;;;;;;8.25;67.56;101848.28;5074059;28;20067;-55
2022/05/04 06:38:05;;;;;;;22.95;10.85;;;;;;;8.38;67.16;101851.69;5073601;28;20060;-56
2022/05/04 06:40:30;;;;;;;22.35;10.82;;;;;;;8.48;66.53;101851.78;5073463;28;20115;-55
2022/05/04 06:42:56;;;;;;;23.60;11.10;;;;;;;8.51;66.61;101848.47;5073644;28;20040;-57
2022/05/04 06:45:21;;;;;;;20.80;10.50;;;;;;;8.55;65.92;101852.38;5073413;28;20096;-56
2022/05/04 06:47:47;;;;;;;22.42;10.63;;;;;;;8.60;65.72;101848.81;5073677;28;20106;-56
2022/05/04 06:50:13;;;;;;;21.98;10.20;;;;;;;8.65;65.62;101854.34;5072768;28;20115;-54
2022/05/04 06:52:38;;;;;;;24.17;10.48;;;;;;;8.72;65.22;101863.22;5073315;28;20483;-54
2022/05/04 06:55:05;;;;;;;21.50;10.20;;;;;;;8.78;65.08;101854.94;5073159;28;20025;-54
2022/05/04 06:57:30;;;;;;;24.10;11.40;;;;;;;8.92;65.00;101860.81;5072948;28;20070;-55
2022/05/04 06:59:57;;;;;;;21.58;10.32;;;;;;;9.05;64.37;101860.31;5072939;28;20086;-57
2022/05/04 07:02:23;;;;;;;21.75;10.05;;;;;;;9.21;63.38;101852.88;5072966;28;20367;-56
2022/05/04 07:04:49;;;;;;;21.23;10.02;;;;;;;9.34;63.76;101855.13;5072882;28;20055;-56
2022/05/04 07:07:14;;;;;;;23.13;9.70;;;;;;;9.44;62.54;101846.06;5073044;28;20459;-56
2022/05/04 07:09:40;;;;;;;20.73;9.18;;;;;;;9.49;62.34;101846.06;5072744;28;20044;-56
2022/05/04 07:12:06;;;;;;;23.55;11.50;;;;;;;9.52;62.06;101853.78;5072823;28;20051;-57
2022/05/04 07:14:32;;;;;;;21.73;9.85;;;;;;;9.44;61.50;101845.22;5072759;28;20108;-56
2022/05/04 07:16:57;;;;;;;21.90;10.13;;;;;;;9.39;61.14;101847.97;5072663;28;20451;-56
2022/05/04 07:19:22;;;;;;;20.20;9.70;;;;;;;9.45;61.69;101849.63;5072767;28;20036;-56
2022/05/04 07:21:47;;;;;;;22.02;9.73;;;;;;;9.55;61.32;101846.88;5072647;28;20020;-56
2022/05/04 07:24:13;;;;;;;21.55;9.82;;;;;;;9.53;61.07;101849.09;5072616;28;20052;-55
2022/05/04 07:26:40;;;;;;;19.98;9.82;;;;;;;9.61;61.27;101842.19;5072280;28;20044;-57
2022/05/04 07:29:05;;;;;;;21.75;9.73;;;;;;;9.65;60.71;101843.28;5072781;28;20040;-56
2022/05/04 07:31:30;;;;;;;21.58;9.93;;;;;;;9.80;61.40;101842.47;5072386;28;20028;-56
2022/05/04 07:33:56;;;;;;;21.10;9.95;;;;;;;9.86;60.51;101841.38;5072511;28;20027;-55
2022/05/04 07:36:21;;;;;;;20.25;9.18;;;;;;;9.95;60.45;101838.88;5072296;28;20062;-55
2022/05/04 07:38:46;;;;;;;20.77;10.50;;;;;;;10.06;60.05;101839.72;5072386;28;20029;-54
2022/05/04 07:43:55;;;;;;;20.95;9.90;;;;;;;10.18;59.44;101847.72;5072465;28;20031;-55
2022/05/04 07:46:21;;;;;;;20.98;9.73;;;;;;;10.27;59.84;101841.31;5072436;28;20391;-56
2022/05/04 07:48:46;;;;;;;20.23;9.95;;;;;;;10.28;59.16;101842.16;5072423;28;20103;-57
2022/05/04 07:51:11;;;;;;;20.20;10.45;;;;;;;10.35;59.43;101841.84;5072231;28;20035;-57
2022/05/04 07:53:37;;;;;;;24.40;10.32;;;;;;;10.52;59.38;101850.72;5072339;28;20120;-56
2022/05/04 07:56:03;;;;;;;22.48;10.45;;;;;;;10.57;58.16;101849.88;5072123;28;20021;-58
2022/05/04 07:58:28;;;;;;;23.92;10.45;;;;;;;10.66;58.38;101847.31;5072245;28;20029;-56
2022/05/04 08:06:21;;;;;;;23.90;11.15;;;;;;;10.74;57.46;101855.88;5071972;28;20363;-57
2022/05/04 08:08:46;;;;;;;21.63;10.50;;;;;;;10.70;57.08;101854.78;5071852;28;20028;-57
2022/05/04 08:11:12;;;;;;;23.90;11.27;;;;;;;10.73;57.00;101857.00;5071929;28;20043;-58
2022/05/04 08:13:37;;;;;;;21.50;10.85;;;;;;;10.79;57.20;101854.19;5071896;28;20116;-56
2022/05/04 08:16:02;;;;;;;20.55;10.80;;;;;;;10.87;57.00;101857.22;5072069;28;20485;-57
2022/05/04 08:18:28;;;;;;;22.33;10.70;;;;;;;10.90;56.79;101853.91;5071695;28;20092;-56
2022/05/04 08:20:53;;;;;;;21.02;11.30;;;;;;;10.94;57.01;101851.38;5071915;28;20442;-56
2022/05/04 08:23:18;;;;;;;23.30;10.23;;;;;;;11.01;56.76;101854.66;5071849;28;20025;-58
2022/05/04 08:25:45;;;;;;;22.20;10.90;;;;;;;11.07;56.85;101847.97;5071605;28;20056;-57
2022/05/04 08:28:12;;;;;;;22.67;11.55;;;;;;;11.19;55.87;101849.59;5072191;28;20028;-57
2022/05/04 08:30:38;;;;;;;21.55;11.60;;;;;;;11.26;56.29;101852.03;5071905;28;20028;-56
2022/05/04 08:33:04;;;;;;;24.00;12.15;;;;;;;11.15;56.44;101849.31;5072303;28;20317;-57
2022/05/04 08:35:29;;;;;;;24.75;12.27;;;;;;;11.14;56.03;101849.63;5071730;28;20048;-56
2022/05/04 08:37:54;;;;;;;23.50;11.90;;;;;;;11.14;56.37;101852.41;5071766;28;20093;-56
2022/05/04 08:40:19;;;;;;;22.10;11.85;;;;;;;11.31;56.32;101857.53;5071610;28;20024;-56
2022/05/04 08:42:45;;;;;;;22.88;12.25;;;;;;;11.42;55.50;101841.69;5071536;28;20078;-55
2022/05/04 08:45:12;;;;;;;24.98;12.27;;;;;;;11.54;55.14;101843.00;5071320;28;20032;-57
2022/05/04 08:47:40;;;;;;;22.25;12.00;;;;;;;11.71;55.24;101850.06;5071651;28;20115;-56
2022/05/04 08:50:10;;;;;;;23.65;11.73;;;;;;;11.89;54.82;101847.69;5071475;28;20024;-57
2022/05/04 08:52:38;;;;;;;24.67;12.68;;;;;;;11.99;53.78;101842.09;5071779;28;20029;-56
2022/05/04 08:55:05;;;;;;;21.42;11.30;;;;;;;12.09;54.22;101844.78;5071505;28;20024;-57
2022/05/04 08:57:31;;;;;;;23.00;11.65;;;;;;;12.23;53.79;101841.31;5071463;28;20033;-57
2022/05/04 08:59:57;;;;;;;23.48;12.48;;;;;;;12.32;53.39;101842.34;5071595;28;20028;-56
2022/05/04 09:02:22;;;;;;;23.70;13.23;;;;;;;12.33;53.86;101842.03;5071025;28;20028;-56
2022/05/04 09:04:47;;;;;;;24.58;11.63;;;;;;;12.41;52.78;101840.56;5071336;28;20055;-56
2022/05/04 09:07:23;;;;;;;22.20;12.23;;;;;;;12.51;53.12;101838.81;5071487;28;20078;-57
2022/05/04 09:09:48;;;;;;;23.17;12.13;;;;;;;12.54;52.30;101838.19;5071731;28;20048;-57
2022/05/04 09:12:16;;;;;;;24.40;12.32;;;;;;;12.58;52.84;101842.06;5071390;28;20351;-57
2022/05/04 09:14:42;;;;;;;21.70;12.10;;;;;;;12.55;52.51;101839.84;5074812;28;20112;-56
2022/05/04 09:17:15;;;;;;;23.02;11.82;;;;;;;12.42;52.18;101844.16;5075037;28;20035;-56
2022/05/04 09:22:41;;;;;;;23.42;12.60;;;;;;;12.60;51.89;101828.72;5075168;28;20043;-57
2022/05/04 09:25:16;;;;;;;22.27;12.25;;;;;;;12.62;51.66;101821.72;5074443;28;20017;-55
2022/05/04 09:27:41;;;;;;;24.83;13.55;;;;;;;12.70;51.04;101831.38;5075102;28;20070;-57
2022/05/04 09:30:07;;;;;;;22.10;11.85;;;;;;;12.71;51.56;101821.06;5075017;28;20020;-57
2022/05/04 09:32:32;;;;;;;23.80;11.52;;;;;;;12.77;51.80;101817.94;5074938;28;20078;-58
2022/05/04 09:35:02;;;;;;;23.05;11.80;;;;;;;12.80;51.55;101810.97;5074815;28;20130;-57
2022/05/04 09:45:55;;;;;;;22.10;12.43;;;;;;;13.51;49.84;101816.63;5074780;28;20448;-57
2022/05/04 09:48:29;;;;;;;;;;;;;;;13.67;51.14;101822.75;5075491;28;20021;-56
2022/05/04 09:51:00;;;;;;;23.02;11.50;;;;;;;13.76;48.67;101813.72;5074599;28;20011;-57
2022/05/04 09:53:27;;;;;;;23.80;11.63;;;;;;;13.78;48.93;101817.03;5074490;28;20482;-56
2022/05/04 09:55:54;;;;;;;21.58;12.07;;;;;;;13.86;48.66;101811.63;5074803;28;20016;-56
2022/05/04 09:58:20;;;;;;;23.55;11.50;;;;;;;14.01;48.61;101813.28;5074512;28;20226;-55
2022/05/04 10:00:45;;;;;;;24.48;12.10;;;;;;;13.91;48.14;101809.84;5074394;28;20449;-57
2022/05/04 10:03:11;;;;;;;25.67;12.82;;;;;;;13.95;48.83;101810.91;5074200;28;20092;-57
2022/05/04 10:05:37;;;;;;;22.58;12.32;;;;;;;14.14;48.51;101803.31;5074447;28;20024;-57
2022/05/04 10:08:03;;;;;;;23.90;12.77;;;;;;;14.27;47.88;101804.47;5074481;28;20137;-57
2022/05/04 10:10:29;;;;;;;24.20;12.10;;;;;;;14.23;47.90;101808.16;5074500;28;20418;-57
2022/05/04 10:12:54;;;;;;;22.88;12.45;;;;;;;14.27;47.67;101801.69;5074145;28;20032;-56
2022/05/04 10:15:20;;;;;;;24.48;12.43;;;;;;;14.29;47.32;101805.00;5073995;28;20032;-56
2022/05/04 10:18:07;;;;;;;23.30;12.85;;;;;;;14.26;47.64;101800.03;5074046;28;20028;-57
2022/05/04 10:20:48;;;;;;;23.35;12.57;;;;;;;14.09;47.74;101797.84;5074344;28;20097;-57
2022/05/04 10:23:19;;;;;;;24.08;12.00;;;;;;;14.26;47.33;101799.22;5074126;28;20029;-57
2022/05/04 10:25:44;;;;;;;22.02;12.00;;;;;;;14.34;46.99;101804.06;5072979;28;20186;-57
2022/05/04 10:28:14;;;;;;;23.63;12.35;;;;;;;14.35;46.26;101795.41;5074086;28;20060;-56
2022/05/04 10:30:56;;;;;;;23.90;12.50;;;;;;;14.45;46.27;101801.88;5074045;28;20086;-57
2022/05/04 10:33:33;;;;;;;24.42;12.93;;;;;;;14.42;46.56;101802.50;5074227;28;20028;-57
2022/05/04 10:36:18;;;;;;;21.77;11.75;;;;;;;14.43;47.07;101798.59;5073916;28;20475;-57
2022/05/04 10:38:44;;;;;;;23.83;13.05;;;;;;;14.47;45.89;101797.66;5073944;28;20055;-57
2022/05/04 10:41:11;;;;;;;25.55;12.75;;;;;;;14.53;45.78;101800.34;5074053;28;20455;-57
2022/05/04 10:43:37;;;;;;;21.45;12.10;;;;;;;14.63;45.07;101789.00;5073814;28;20020;-57
2022/05/04 10:46:10;;;;;;;22.30;12.10;;;;;;;14.73;45.86;101790.75;5073788;28;20027;-57
2022/05/04 10:48:35;;;;;;;25.27;12.57;;;;;;;14.61;45.65;101797.66;5073700;28;20032;-55
2022/05/04 10:51:18;;;;;;;23.10;12.80;;;;;;;14.64;46.33;101791.47;5074167;28;20012;-60
2022/05/04 10:53:46;;;;;;;23.45;12.85;;;;;;;14.50;45.81;101785.91;5074167;28;20017;-58
2022/05/04 10:56:23;;;;;;;23.50;12.75;;;;;;;14.74;46.05;101792.41;5073999;28;20025;-58
2022/05/04 10:58:52;;;;;;;22.23;12.65;;;;;;;14.89;46.19;101789.28;5073580;28;20036;-55
2022/05/04 11:01:21;;;;;;;23.15;12.57;;;;;;;15.12;45.11;101792.94;5073684;28;20323;-59
2022/05/04 11:04:06;;;;;;;23.25;12.90;;;;;;;15.10;44.48;101798.03;5073881;28;20032;-57
2022/05/04 11:06:32;;;;;;;25.35;13.23;;;;;;;15.00;45.21;101786.28;5073508;28;20104;-56
2022/05/04 11:09:04;;;;;;;23.90;13.52;;;;;;;15.09;45.46;101788.00;5073498;28;20162;-57
2022/05/04 11:11:30;;;;;;;23.95;12.93;;;;;;;15.27;45.41;101785.38;5073066;28;20028;-56
2022/05/04 11:13:55;;;;;;;23.33;13.27;;;;;;;15.51;45.23;101778.66;5073167;28;20032;-57
2022/05/04 11:16:23;;;;;;;23.40;12.60;;;;;;;15.52;43.86;101777.50;5073124;28;20356;-57
2022/05/04 11:18:48;;;;;;;22.73;11.93;;;;;;;15.46;44.15;101781.59;5072949;28;20107;-57
2022/05/04 11:21:16;;;;;;;22.80;13.20;;;;;;;15.60;43.80;101777.59;5073090;28;20174;-57
2022/05/04 11:23:47;;;;;;;25.83;12.13;;;;;;;15.77;43.56;101769.66;5073321;28;20444;-57
2022/05/04 11:26:18;;;;;;;24.15;12.38;;;;;;;15.87;42.96;101767.44;5072581;28;20075;-57
2022/05/04 11:28:43;;;;;;;24.02;12.13;;;;;;;15.54;41.96;101775.25;5072910;28;20021;-58
2022/05/04 11:31:09;;;;;;;20.88;11.23;;;;;;;15.45;41.09;101777.94;5071575;28;20033;-56
2022/05/04 11:33:34;;;;;;;22.63;11.77;;;;;;;15.26;41.71;101765.03;5072875;28;20032;-57
2022/05/04 11:36:00;;;;;;;22.67;12.05;;;;;;;15.45;42.42;101766.81;5072582;28;20044;-57
2022/05/04 11:38:25;;;;;;;23.85;12.52;;;;;;;15.56;42.99;101772.97;5072713;28;20029;-56
2022/05/04 11:40:51;;;;;;;23.45;12.27;;;;;;;15.71;41.56;101764.19;5072736;28;20028;-55
2022/05/04 11:43:27;;;;;;;22.25;12.80;;;;;;;15.90;43.14;101761.22;5072318;28;20082;-57
2022/05/04 11:45:54;;;;;;;24.77;13.60;;;;;;;15.75;42.75;101759.63;5072886;28;20021;-57
2022/05/04 11:48:19;;;;;;;23.58;13.55;;;;;;;15.83;43.21;101758.00;5072430;28;20395;-56